createdAt,value
2018-03-16T00:00:20.652Z,0
2018-03-16T00:01:01.179Z,0
2018-03-16T00:01:41.666Z,0
2018-03-16T00:02:22.113Z,0
2018-03-16T00:03:02.618Z,0
2018-03-16T00:03:43.132Z,0
2018-03-16T00:04:23.638Z,0
2018-03-16T00:05:04.137Z,0
2018-03-16T00:05:44.669Z,0
2018-03-16T00:06:25.192Z,0
2018-03-16T00:07:05.612Z,0
2018-03-16T00:07:46.115Z,0
2018-03-16T00:08:26.633Z,0
2018-03-16T00:09:07.159Z,0
2018-03-16T00:09:47.675Z,0
2018-03-16T00:10:28.186Z,0
2018-03-16T00:11:08.695Z,0
2018-03-16T00:11:49.222Z,0
2018-03-16T00:12:29.753Z,0
2018-03-16T00:13:10.231Z,0
2018-03-16T00:13:50.711Z,0
2018-03-16T00:14:31.229Z,0
2018-03-16T00:15:11.732Z,0
2018-03-16T00:15:52.250Z,0
2018-03-16T00:16:32.726Z,0
2018-03-16T00:17:13.233Z,0
2018-03-16T00:17:53.757Z,0
2018-03-16T00:18:34.247Z,0
2018-03-16T00:19:14.735Z,0
2018-03-16T00:19:55.215Z,0
2018-03-16T00:20:35.704Z,0
2018-03-16T00:21:16.145Z,0
2018-03-16T00:21:56.647Z,0
2018-03-16T00:22:37.234Z,0
2018-03-16T00:23:17.756Z,0
2018-03-16T00:23:58.226Z,0
2018-03-16T00:24:38.696Z,0
2018-03-16T00:25:19.179Z,0
2018-03-16T00:25:59.679Z,0
2018-03-16T00:26:40.211Z,0
2018-03-16T00:27:20.731Z,0
2018-03-16T00:28:01.272Z,0
2018-03-16T00:28:41.790Z,0
2018-03-16T00:29:22.314Z,0
2018-03-16T00:30:02.824Z,0
2018-03-16T00:30:43.340Z,0
2018-03-16T00:31:23.847Z,0
2018-03-16T00:32:04.364Z,0
2018-03-16T00:32:44.868Z,0
2018-03-16T00:33:25.395Z,0
2018-03-16T00:34:05.890Z,0
2018-03-16T00:34:46.394Z,0
2018-03-16T00:35:26.996Z,0
2018-03-16T00:36:07.473Z,0
2018-03-16T00:36:47.989Z,0
2018-03-16T00:37:28.499Z,0
2018-03-16T00:38:09.012Z,0
2018-03-16T00:38:49.533Z,0
2018-03-16T00:39:30.047Z,0
2018-03-16T00:40:10.557Z,0
2018-03-16T00:40:51.070Z,0
2018-03-16T00:41:31.577Z,0
2018-03-16T00:42:12.095Z,0
2018-03-16T00:42:52.600Z,0
2018-03-16T00:43:33.097Z,0
2018-03-16T00:44:13.623Z,0
2018-03-16T00:44:54.130Z,0
2018-03-16T00:45:34.660Z,0
2018-03-16T00:46:15.193Z,0
2018-03-16T00:46:55.705Z,0
2018-03-16T00:47:36.233Z,0
2018-03-16T00:48:16.747Z,0
2018-03-16T00:48:57.245Z,0
2018-03-16T00:49:37.757Z,0
2018-03-16T00:50:18.267Z,0
2018-03-16T00:50:58.805Z,0
2018-03-16T00:51:39.332Z,0
2018-03-16T00:52:19.840Z,0
2018-03-16T00:53:00.361Z,0
2018-03-16T00:53:40.893Z,0
2018-03-16T00:54:21.415Z,0
2018-03-16T00:55:01.941Z,0
2018-03-16T00:55:42.453Z,0
2018-03-16T00:56:22.964Z,0
2018-03-16T00:57:03.489Z,0
2018-03-16T00:57:44.008Z,0
2018-03-16T00:58:24.535Z,0
2018-03-16T00:59:05.068Z,0
2018-03-16T00:59:45.580Z,0
2018-03-16T01:00:26.087Z,0
2018-03-16T01:01:06.607Z,0
2018-03-16T01:01:47.132Z,0
2018-03-16T01:02:27.648Z,0
2018-03-16T01:03:08.165Z,0
2018-03-16T01:03:48.677Z,0
2018-03-16T01:04:29.202Z,0
2018-03-16T01:05:09.715Z,0
2018-03-16T01:05:50.226Z,0
2018-03-16T01:06:30.741Z,0
2018-03-16T01:07:11.251Z,0
2018-03-16T01:07:51.752Z,0
2018-03-16T01:08:32.282Z,0
2018-03-16T01:09:12.853Z,0
2018-03-16T01:09:53.324Z,0
2018-03-16T01:10:33.858Z,0
2018-03-16T01:11:14.329Z,0
2018-03-16T01:11:54.844Z,0
2018-03-16T01:12:35.358Z,0
2018-03-16T01:13:15.879Z,0
2018-03-16T01:13:56.392Z,0
2018-03-16T01:14:36.904Z,0
2018-03-16T01:15:17.415Z,0
2018-03-16T01:15:57.936Z,0
2018-03-16T01:16:38.438Z,0
2018-03-16T01:17:18.986Z,0
2018-03-16T01:17:59.490Z,0
2018-03-16T01:18:40.004Z,0
2018-03-16T01:19:20.513Z,0
2018-03-16T01:20:01.023Z,0
2018-03-16T01:20:41.566Z,0
2018-03-16T01:21:22.051Z,0
2018-03-16T01:22:02.593Z,0
2018-03-16T01:22:43.077Z,0
2018-03-16T01:23:23.619Z,0
2018-03-16T01:24:04.128Z,0
2018-03-16T01:24:44.624Z,0
2018-03-16T01:25:25.155Z,0
2018-03-16T01:26:05.674Z,0
2018-03-16T01:26:46.200Z,0
2018-03-16T01:27:26.705Z,0
2018-03-16T01:28:07.240Z,0
2018-03-16T01:28:47.749Z,0
2018-03-16T01:29:28.237Z,0
2018-03-16T01:30:08.768Z,0
2018-03-16T01:30:49.274Z,0
2018-03-16T01:31:29.787Z,0
2018-03-16T01:32:10.294Z,0
2018-03-16T01:32:50.846Z,0
2018-03-16T01:33:31.329Z,0
2018-03-16T01:34:11.843Z,0
2018-03-16T01:34:52.344Z,0
2018-03-16T01:35:32.854Z,0
2018-03-16T01:36:13.364Z,0
2018-03-16T01:36:53.880Z,0
2018-03-16T01:37:34.341Z,0
2018-03-16T01:38:14.849Z,0
2018-03-16T01:38:55.361Z,0
2018-03-16T01:39:35.873Z,0
2018-03-16T01:40:16.365Z,0
2018-03-16T01:40:56.864Z,0
2018-03-16T01:41:37.366Z,0
2018-03-16T01:42:17.868Z,0
2018-03-16T01:42:58.370Z,0
2018-03-16T01:43:38.884Z,0
2018-03-16T01:44:19.413Z,0
2018-03-16T01:44:59.919Z,0
2018-03-16T01:45:40.442Z,0
2018-03-16T01:46:20.966Z,0
2018-03-16T01:47:01.474Z,0
2018-03-16T01:47:41.985Z,0
2018-03-16T01:48:22.490Z,0
2018-03-16T01:49:03.001Z,0
2018-03-16T01:49:43.522Z,0
2018-03-16T01:50:24.030Z,0
2018-03-16T01:51:04.548Z,0
2018-03-16T01:51:45.069Z,0
2018-03-16T01:52:25.561Z,0
2018-03-16T01:53:06.076Z,0
2018-03-16T01:53:46.606Z,0
2018-03-16T01:54:27.112Z,0
2018-03-16T01:55:07.638Z,0
2018-03-16T01:55:48.180Z,0
2018-03-16T01:56:28.692Z,0
2018-03-16T01:57:09.209Z,0
2018-03-16T01:57:49.715Z,0
2018-03-16T01:58:30.240Z,0
2018-03-16T01:59:10.758Z,0
2018-03-16T01:59:51.280Z,0
2018-03-16T02:00:31.805Z,0
2018-03-16T02:01:12.318Z,0
2018-03-16T02:01:52.837Z,0
2018-03-16T02:02:33.355Z,0
2018-03-16T02:03:13.856Z,0
2018-03-16T02:03:54.365Z,0
2018-03-16T02:04:34.876Z,0
2018-03-16T02:05:15.391Z,0
2018-03-16T02:05:55.908Z,0
2018-03-16T02:06:36.428Z,0
2018-03-16T02:07:16.938Z,0
2018-03-16T02:07:57.463Z,0
2018-03-16T02:08:37.974Z,0
2018-03-16T02:09:18.493Z,0
2018-03-16T02:09:59.018Z,0
2018-03-16T02:10:39.531Z,0
2018-03-16T02:11:20.041Z,0
2018-03-16T02:12:00.560Z,0
2018-03-16T02:12:41.073Z,0
2018-03-16T02:13:21.587Z,0
2018-03-16T02:14:02.098Z,0
2018-03-16T02:14:42.613Z,0
2018-03-16T02:15:23.135Z,0
2018-03-16T02:16:03.667Z,0
2018-03-16T02:16:44.193Z,0
2018-03-16T02:17:24.700Z,0
2018-03-16T02:18:05.223Z,0
2018-03-16T02:18:45.745Z,0
2018-03-16T02:19:26.263Z,0
2018-03-16T02:20:06.780Z,0
2018-03-16T02:20:47.277Z,0
2018-03-16T02:21:27.811Z,0
2018-03-16T02:22:08.348Z,0
2018-03-16T02:22:48.852Z,0
2018-03-16T02:23:29.386Z,0
2018-03-16T02:24:09.918Z,0
2018-03-16T02:24:50.443Z,0
2018-03-16T02:25:30.986Z,0
2018-03-16T02:26:11.498Z,0
2018-03-16T02:26:52.020Z,0
2018-03-16T02:27:32.560Z,0
2018-03-16T02:28:13.075Z,0
2018-03-16T02:28:53.574Z,0
2018-03-16T02:29:34.084Z,0
2018-03-16T02:30:14.594Z,0
2018-03-16T02:30:55.114Z,0
2018-03-16T02:31:35.639Z,0
2018-03-16T02:32:16.138Z,0
2018-03-16T02:32:56.693Z,0
2018-03-16T02:33:37.206Z,0
2018-03-16T02:34:17.715Z,0
2018-03-16T02:34:58.237Z,0
2018-03-16T02:35:38.773Z,0
2018-03-16T02:36:19.278Z,0
2018-03-16T02:36:59.815Z,0
2018-03-16T02:37:40.321Z,0
2018-03-16T02:38:20.872Z,0
2018-03-16T02:39:01.392Z,0
2018-03-16T02:39:41.890Z,0
2018-03-16T02:40:22.381Z,0
2018-03-16T02:41:02.936Z,0
2018-03-16T02:41:43.429Z,0
2018-03-16T02:42:23.918Z,0
2018-03-16T02:43:04.441Z,0
2018-03-16T02:43:44.907Z,0
2018-03-16T02:44:25.415Z,0
2018-03-16T02:45:05.929Z,0
2018-03-16T02:45:46.458Z,0
2018-03-16T02:46:26.978Z,0
2018-03-16T02:47:07.469Z,0
2018-03-16T02:47:47.942Z,0
2018-03-16T02:48:28.457Z,0
2018-03-16T02:49:08.965Z,0
2018-03-16T02:49:49.468Z,0
2018-03-16T02:50:29.968Z,0
2018-03-16T02:51:10.493Z,0
2018-03-16T02:51:50.987Z,0
2018-03-16T02:52:31.529Z,0
2018-03-16T02:53:12.008Z,0
2018-03-16T02:53:52.550Z,0
2018-03-16T02:54:33.071Z,0
2018-03-16T02:55:13.579Z,0
2018-03-16T02:55:54.117Z,0
2018-03-16T02:56:34.650Z,0
2018-03-16T02:57:15.166Z,0
2018-03-16T02:57:55.675Z,0
2018-03-16T02:58:36.201Z,0
2018-03-16T02:59:16.711Z,0
2018-03-16T02:59:57.220Z,0
2018-03-16T03:00:37.746Z,0
2018-03-16T03:01:18.257Z,0
2018-03-16T03:01:58.779Z,0
2018-03-16T03:02:39.293Z,0
2018-03-16T03:03:19.817Z,0
2018-03-16T03:04:00.322Z,0
2018-03-16T03:04:40.840Z,0
2018-03-16T03:05:21.345Z,0
2018-03-16T03:06:01.863Z,0
2018-03-16T03:06:42.370Z,0
2018-03-16T03:07:22.902Z,0
2018-03-16T03:08:03.418Z,0
2018-03-16T03:08:43.895Z,0
2018-03-16T03:09:24.418Z,0
2018-03-16T03:10:04.927Z,0
2018-03-16T03:10:45.446Z,0
2018-03-16T03:11:25.963Z,0
2018-03-16T03:12:06.474Z,0
2018-03-16T03:12:46.989Z,0
2018-03-16T03:13:27.501Z,0
2018-03-16T03:14:08.041Z,0
2018-03-16T03:14:48.565Z,0
2018-03-16T03:15:29.080Z,0
2018-03-16T03:16:09.594Z,0
2018-03-16T03:16:50.118Z,0
2018-03-16T03:17:30.669Z,0
2018-03-16T03:18:11.179Z,0
2018-03-16T03:18:51.642Z,0
2018-03-16T03:19:32.152Z,0
2018-03-16T03:20:12.688Z,0
2018-03-16T03:20:53.210Z,0
2018-03-16T03:21:33.720Z,0
2018-03-16T03:22:14.229Z,0
2018-03-16T03:22:54.788Z,0
2018-03-16T03:23:35.352Z,0
2018-03-16T03:24:15.872Z,0
2018-03-16T03:24:56.394Z,0
2018-03-16T03:25:36.880Z,0
2018-03-16T03:26:17.383Z,0
2018-03-16T03:26:57.922Z,0
2018-03-16T03:27:38.408Z,0
2018-03-16T03:28:18.918Z,0
2018-03-16T03:28:59.418Z,0
2018-03-16T03:29:39.938Z,0
2018-03-16T03:30:20.468Z,0
2018-03-16T03:31:01.059Z,0
2018-03-16T03:31:41.599Z,0
2018-03-16T03:32:22.096Z,0
2018-03-16T03:33:02.633Z,0
2018-03-16T03:33:43.152Z,0
2018-03-16T03:34:23.715Z,0
2018-03-16T03:35:04.184Z,0
2018-03-16T03:35:44.757Z,0
2018-03-16T03:36:25.273Z,0
2018-03-16T03:37:05.764Z,0
2018-03-16T03:37:46.268Z,0
2018-03-16T03:38:26.760Z,0
2018-03-16T03:39:07.288Z,0
2018-03-16T03:39:47.787Z,0
2018-03-16T03:40:28.327Z,0
2018-03-16T03:42:26.496Z,0
2018-03-16T03:43:07.043Z,0
2018-03-16T03:43:47.561Z,0
2018-03-16T03:44:28.053Z,0
2018-03-16T03:45:08.578Z,0
2018-03-16T03:45:49.168Z,0
2018-03-16T03:46:29.674Z,0
2018-03-16T03:47:10.217Z,0
2018-03-16T03:47:50.691Z,0
2018-03-16T03:48:31.175Z,0
2018-03-16T03:49:11.776Z,0
2018-03-16T03:49:52.277Z,0
2018-03-16T03:50:32.731Z,0
2018-03-16T03:51:13.210Z,0
2018-03-16T03:51:53.729Z,0
2018-03-16T03:52:34.242Z,0
2018-03-16T03:53:14.753Z,0
2018-03-16T03:53:55.243Z,0
2018-03-16T03:54:35.756Z,0
2018-03-16T03:55:16.341Z,0
2018-03-16T03:55:56.764Z,0
2018-03-16T03:56:37.234Z,0
2018-03-16T03:57:17.762Z,0
2018-03-16T03:57:58.219Z,0
2018-03-16T03:58:38.877Z,0
2018-03-16T03:59:19.221Z,0
2018-03-16T03:59:59.778Z,0
2018-03-16T04:00:40.270Z,0
2018-03-16T04:01:20.824Z,0
2018-03-16T04:02:01.327Z,0
2018-03-16T04:02:41.840Z,0
2018-03-16T04:03:22.328Z,0
2018-03-16T04:04:02.830Z,0
2018-03-16T04:04:43.370Z,0
2018-03-16T04:05:23.870Z,0
2018-03-16T04:06:04.373Z,0
2018-03-16T04:06:44.869Z,0
2018-03-16T04:07:25.368Z,0
2018-03-16T04:08:05.883Z,0
2018-03-16T04:08:46.392Z,0
2018-03-16T04:09:26.875Z,0
2018-03-16T04:10:07.382Z,0
2018-03-16T04:10:47.876Z,0
2018-03-16T04:11:28.393Z,0
2018-03-16T04:12:08.938Z,0
2018-03-16T04:12:49.434Z,0
2018-03-16T04:13:29.940Z,0
2018-03-16T04:14:10.406Z,0
2018-03-16T04:14:50.949Z,0
2018-03-16T04:15:31.457Z,0
2018-03-16T04:18:01.774Z,0
2018-03-16T04:18:42.232Z,0
2018-03-16T04:19:22.733Z,0
2018-03-16T04:20:03.276Z,0
2018-03-16T04:20:43.801Z,0
2018-03-16T04:21:24.325Z,0
2018-03-16T04:22:04.862Z,0
2018-03-16T04:22:45.368Z,0
2018-03-16T04:23:25.883Z,0
2018-03-16T04:24:06.398Z,0
2018-03-16T04:24:46.943Z,0
2018-03-16T04:25:27.439Z,0
2018-03-16T04:26:07.949Z,0
2018-03-16T04:26:48.459Z,0
2018-03-16T04:27:28.937Z,0
2018-03-16T04:28:09.525Z,0
2018-03-16T04:28:50.048Z,0
2018-03-16T04:29:30.563Z,0
2018-03-16T04:30:11.054Z,0
2018-03-16T04:30:51.572Z,0
2018-03-16T04:31:32.098Z,0
2018-03-16T04:32:12.602Z,0
2018-03-16T04:32:53.102Z,0
2018-03-16T04:33:33.612Z,0
2018-03-16T04:34:14.138Z,0
2018-03-16T04:34:54.693Z,0
2018-03-16T04:35:35.216Z,0
2018-03-16T04:36:15.729Z,0
2018-03-16T04:36:56.246Z,0
2018-03-16T04:37:36.752Z,0
2018-03-16T04:38:17.285Z,0
2018-03-16T04:38:57.793Z,0
2018-03-16T04:39:38.317Z,0
2018-03-16T04:40:18.842Z,0
2018-03-16T04:40:59.374Z,0
2018-03-16T04:41:39.955Z,0
2018-03-16T04:42:20.472Z,0
2018-03-16T04:43:01.042Z,0
2018-03-16T04:43:41.537Z,0
2018-03-16T04:44:22.048Z,0
2018-03-16T04:45:02.556Z,0
2018-03-16T04:45:43.069Z,0
2018-03-16T04:46:23.574Z,0
2018-03-16T04:47:04.091Z,0
2018-03-16T04:47:44.613Z,0
2018-03-16T04:48:25.124Z,0
2018-03-16T04:49:05.629Z,0
2018-03-16T04:49:46.157Z,0
2018-03-16T04:50:26.675Z,0
2018-03-16T04:51:07.182Z,0
2018-03-16T04:51:47.696Z,0
2018-03-16T04:52:28.226Z,0
2018-03-16T04:53:08.724Z,0
2018-03-16T04:53:49.254Z,0
2018-03-16T04:54:29.773Z,0
2018-03-16T04:55:10.285Z,0
2018-03-16T04:55:50.799Z,0
2018-03-16T04:56:31.318Z,0
2018-03-16T04:57:11.829Z,0
2018-03-16T04:57:52.294Z,0
2018-03-16T04:58:32.782Z,0
2018-03-16T04:59:13.309Z,0
2018-03-16T04:59:53.785Z,0
2018-03-16T05:00:34.307Z,0
2018-03-16T05:01:14.808Z,0
2018-03-16T05:01:55.317Z,0
2018-03-16T05:02:35.839Z,0
2018-03-16T05:03:16.418Z,0
2018-03-16T05:03:56.867Z,0
2018-03-16T05:04:37.374Z,0
2018-03-16T05:05:17.891Z,0
2018-03-16T05:05:58.412Z,0
2018-03-16T05:06:38.917Z,0
2018-03-16T05:07:19.435Z,0
2018-03-16T05:07:59.957Z,0
2018-03-16T05:08:40.463Z,0
2018-03-16T05:09:20.965Z,0
2018-03-16T05:10:01.482Z,0
2018-03-16T05:10:41.992Z,0
2018-03-16T05:11:22.507Z,0
2018-03-16T05:12:03.014Z,0
2018-03-16T05:12:43.524Z,0
2018-03-16T05:13:24.036Z,0
2018-03-16T05:14:04.542Z,0
2018-03-16T05:14:45.071Z,0
2018-03-16T05:15:25.549Z,0
2018-03-16T05:16:06.059Z,0
2018-03-16T05:16:46.562Z,0
2018-03-16T05:17:27.083Z,0
2018-03-16T05:18:07.616Z,0
2018-03-16T05:18:48.112Z,4
2018-03-16T05:19:28.636Z,4
2018-03-16T05:20:09.158Z,4
2018-03-16T05:20:49.669Z,0
2018-03-16T05:21:30.186Z,0
2018-03-16T05:22:10.692Z,0
2018-03-16T05:22:51.207Z,0
2018-03-16T05:23:31.729Z,4
2018-03-16T05:24:12.241Z,4
2018-03-16T05:24:52.745Z,4
2018-03-16T05:25:33.254Z,4
2018-03-16T05:26:13.767Z,4
2018-03-16T05:26:54.273Z,4
2018-03-16T05:27:34.814Z,8
2018-03-16T05:28:15.294Z,8
2018-03-16T05:28:55.808Z,8
2018-03-16T05:29:36.312Z,8
2018-03-16T05:30:16.825Z,12
2018-03-16T05:30:57.343Z,8
2018-03-16T05:31:37.861Z,12
2018-03-16T05:32:18.370Z,12
2018-03-16T05:32:58.909Z,16
2018-03-16T05:33:39.416Z,16
2018-03-16T05:34:19.940Z,16
2018-03-16T05:35:00.479Z,20
2018-03-16T05:35:40.986Z,20
2018-03-16T05:36:21.498Z,20
2018-03-16T05:37:02.028Z,20
2018-03-16T05:37:42.559Z,24
2018-03-16T05:38:23.076Z,24
2018-03-16T05:39:03.577Z,28
2018-03-16T05:39:44.085Z,36
2018-03-16T05:40:24.599Z,40
2018-03-16T05:41:05.159Z,44
2018-03-16T05:41:45.669Z,48
2018-03-16T05:42:26.198Z,52
2018-03-16T05:43:06.692Z,56
2018-03-16T05:43:47.182Z,64
2018-03-16T05:44:27.690Z,68
2018-03-16T05:45:08.301Z,72
2018-03-16T05:45:48.804Z,80
2018-03-16T05:46:29.320Z,96
2018-03-16T05:47:09.812Z,112
2018-03-16T05:47:50.322Z,136
2018-03-16T05:48:30.843Z,156
2018-03-16T05:49:11.355Z,176
2018-03-16T05:49:51.869Z,192
2018-03-16T05:50:32.388Z,212
2018-03-16T05:51:12.907Z,220
2018-03-16T05:51:53.418Z,220
2018-03-16T05:52:33.943Z,216
2018-03-16T05:53:14.516Z,212
2018-03-16T05:53:54.991Z,200
2018-03-16T05:54:35.500Z,192
2018-03-16T05:57:09.124Z,176
2018-03-16T05:57:49.645Z,176
2018-03-16T05:58:30.160Z,176
2018-03-16T05:59:10.665Z,180
2018-03-16T05:59:51.171Z,196
2018-03-16T06:00:31.669Z,216
2018-03-16T06:01:12.208Z,236
2018-03-16T06:01:52.687Z,252
2018-03-16T06:02:33.199Z,284
2018-03-16T06:03:13.718Z,304
2018-03-16T06:03:54.248Z,308
2018-03-16T06:04:34.780Z,292
2018-03-16T06:05:15.295Z,276
2018-03-16T06:05:55.805Z,276
2018-03-16T06:06:36.323Z,280
2018-03-16T06:07:16.854Z,276
2018-03-16T06:07:57.360Z,272
2018-03-16T06:08:37.864Z,276
2018-03-16T06:09:18.443Z,272
2018-03-16T06:09:58.930Z,264
2018-03-16T06:10:39.446Z,268
2018-03-16T06:11:19.954Z,272
2018-03-16T06:12:00.476Z,280
2018-03-16T06:12:40.992Z,280
2018-03-16T06:13:21.497Z,268
2018-03-16T06:14:02.023Z,264
2018-03-16T06:14:42.549Z,260
2018-03-16T06:15:23.061Z,264
2018-03-16T06:16:03.585Z,264
2018-03-16T06:16:44.088Z,260
2018-03-16T06:17:24.645Z,248
2018-03-16T06:18:05.164Z,252
2018-03-16T06:18:45.674Z,272
2018-03-16T06:19:26.178Z,288
2018-03-16T06:20:06.668Z,292
2018-03-16T06:20:47.171Z,292
2018-03-16T06:21:27.671Z,284
2018-03-16T06:22:08.183Z,276
2018-03-16T06:22:48.683Z,268
2018-03-16T06:23:29.223Z,252
2018-03-16T06:24:09.731Z,264
2018-03-16T06:24:50.236Z,284
2018-03-16T06:25:30.765Z,312
2018-03-16T06:26:11.328Z,324
2018-03-16T06:26:51.784Z,324
2018-03-16T06:29:10.141Z,284
2018-03-16T06:29:50.660Z,284
2018-03-16T06:30:31.165Z,284
2018-03-16T06:31:11.671Z,288
2018-03-16T06:31:52.196Z,288
2018-03-16T06:32:32.725Z,300
2018-03-16T06:33:13.237Z,344
2018-03-16T06:33:53.813Z,396
2018-03-16T06:34:34.265Z,448
2018-03-16T06:35:14.783Z,480
2018-03-16T06:35:55.331Z,488
2018-03-16T06:36:35.877Z,484
2018-03-16T06:37:17.550Z,496
2018-03-16T06:37:57.995Z,508
2018-03-16T06:38:38.528Z,500
2018-03-16T06:39:19.077Z,484
2018-03-16T06:39:59.555Z,468
2018-03-16T06:40:40.033Z,452
2018-03-16T06:41:20.557Z,444
2018-03-16T06:42:01.793Z,424
2018-03-16T06:42:42.346Z,404
2018-03-16T06:43:22.806Z,404
2018-03-16T06:44:03.276Z,424
2018-03-16T06:44:43.912Z,436
2018-03-16T06:45:24.303Z,440
2018-03-16T06:46:05.159Z,444
2018-03-16T06:46:45.369Z,464
2018-03-16T06:47:25.898Z,468
2018-03-16T06:48:06.334Z,468
2018-03-16T06:48:46.842Z,472
2018-03-16T06:49:27.331Z,460
2018-03-16T06:50:07.808Z,436
2018-03-16T06:50:48.298Z,424
2018-03-16T06:51:28.800Z,400
2018-03-16T06:52:09.242Z,384
2018-03-16T06:52:49.751Z,376
2018-03-16T06:53:30.238Z,372
2018-03-16T06:54:10.771Z,364
2018-03-16T06:54:51.247Z,376
2018-03-16T06:55:31.752Z,388
2018-03-16T06:56:12.248Z,400
2018-03-16T06:58:30.593Z,544
2018-03-16T06:59:11.101Z,604
2018-03-16T06:59:51.639Z,672
2018-03-16T07:00:32.171Z,776
2018-03-16T07:01:12.688Z,832
2018-03-16T07:01:53.200Z,888
2018-03-16T07:02:33.699Z,884
2018-03-16T07:03:14.254Z,836
2018-03-16T07:03:54.705Z,776
2018-03-16T07:04:35.199Z,732
2018-03-16T07:05:15.705Z,712
2018-03-16T07:05:56.264Z,696
2018-03-16T07:06:36.777Z,728
2018-03-16T07:07:17.246Z,720
2018-03-16T07:07:57.749Z,720
2018-03-16T07:08:38.285Z,720
2018-03-16T07:09:18.778Z,712
2018-03-16T07:09:59.251Z,740
2018-03-16T07:10:39.742Z,712
2018-03-16T07:11:20.282Z,700
2018-03-16T07:12:00.693Z,736
2018-03-16T07:12:41.192Z,752
2018-03-16T07:13:21.676Z,736
2018-03-16T07:14:02.249Z,700
2018-03-16T07:14:42.772Z,704
2018-03-16T07:15:23.258Z,728
2018-03-16T07:16:03.690Z,828
2018-03-16T07:16:44.196Z,940
2018-03-16T07:17:24.714Z,1044
2018-03-16T07:18:05.206Z,1052
2018-03-16T07:18:45.727Z,1084
2018-03-16T07:19:26.166Z,1124
2018-03-16T07:20:06.655Z,1128
2018-03-16T07:20:47.111Z,1112
2018-03-16T07:21:27.643Z,1056
2018-03-16T07:22:08.118Z,980
2018-03-16T07:22:48.629Z,904
2018-03-16T07:23:29.175Z,832
2018-03-16T07:24:09.644Z,792
2018-03-16T07:24:50.161Z,808
2018-03-16T07:25:30.731Z,848
2018-03-16T07:26:11.221Z,932
2018-03-16T07:26:51.703Z,960
2018-03-16T07:27:32.191Z,1016
2018-03-16T07:28:12.692Z,1084
2018-03-16T07:28:53.180Z,1160
2018-03-16T07:29:33.699Z,1240
2018-03-16T07:30:14.172Z,1308
2018-03-16T07:30:54.709Z,1400
2018-03-16T07:31:35.158Z,1452
2018-03-16T07:32:15.637Z,1452
2018-03-16T07:32:56.379Z,1512
2018-03-16T07:33:36.860Z,1484
2018-03-16T07:34:17.423Z,1436
2018-03-16T07:34:57.896Z,1360
2018-03-16T07:35:38.393Z,1228
2018-03-16T07:36:18.864Z,1160
2018-03-16T07:36:59.342Z,1092
2018-03-16T07:37:39.863Z,1072
2018-03-16T07:38:20.324Z,1040
2018-03-16T07:39:00.820Z,1052
2018-03-16T07:39:41.342Z,1036
2018-03-16T07:40:21.832Z,1032
2018-03-16T07:41:02.316Z,1068
2018-03-16T07:41:42.802Z,1084
2018-03-16T07:42:23.292Z,1088
2018-03-16T07:43:03.784Z,1120
2018-03-16T07:43:44.382Z,1232
2018-03-16T07:44:24.860Z,1272
2018-03-16T07:45:05.360Z,1260
2018-03-16T07:45:45.867Z,1344
2018-03-16T07:46:26.376Z,1396
2018-03-16T07:47:06.885Z,1408
2018-03-16T07:47:47.425Z,1416
2018-03-16T07:48:27.893Z,1464
2018-03-16T07:49:08.397Z,1444
2018-03-16T07:49:49.161Z,1424
2018-03-16T07:50:29.678Z,1436
2018-03-16T07:51:10.189Z,1424
2018-03-16T07:51:50.715Z,1360
2018-03-16T07:52:31.192Z,1348
2018-03-16T07:53:11.718Z,1368
2018-03-16T07:53:52.194Z,1392
2018-03-16T07:54:33.488Z,1436
2018-03-16T07:55:13.276Z,1460
2018-03-16T07:55:53.812Z,1504
2018-03-16T07:56:34.287Z,1612
2018-03-16T07:57:14.795Z,1712
2018-03-16T07:57:55.347Z,1852
2018-03-16T07:58:35.813Z,1904
2018-03-16T07:59:16.336Z,1968
2018-03-16T07:59:56.847Z,2120
2018-03-16T08:00:37.364Z,2108
2018-03-16T08:01:17.863Z,2048
2018-03-16T08:01:58.375Z,1912
2018-03-16T08:02:38.887Z,1788
2018-03-16T08:03:19.378Z,1716
2018-03-16T08:03:59.880Z,1600
2018-03-16T08:04:40.414Z,1548
2018-03-16T08:05:20.913Z,1536
2018-03-16T08:06:01.415Z,1636
2018-03-16T08:06:41.921Z,1720
2018-03-16T08:07:22.493Z,1748
2018-03-16T08:08:03.043Z,1780
2018-03-16T08:08:43.598Z,1896
2018-03-16T08:09:24.039Z,2040
2018-03-16T08:10:04.571Z,2160
2018-03-16T08:10:45.068Z,2236
2018-03-16T08:11:25.548Z,2348
2018-03-16T08:12:06.072Z,2468
2018-03-16T08:12:46.598Z,2668
2018-03-16T08:13:27.057Z,2756
2018-03-16T08:14:07.579Z,2760
2018-03-16T08:14:48.091Z,2732
2018-03-16T08:15:28.593Z,2640
2018-03-16T08:16:09.141Z,2576
2018-03-16T08:16:49.650Z,2476
2018-03-16T08:17:30.179Z,2472
2018-03-16T08:18:10.685Z,2420
2018-03-16T08:18:51.206Z,2464
2018-03-16T08:19:31.709Z,2592
2018-03-16T08:20:12.223Z,2752
2018-03-16T08:20:52.732Z,2936
2018-03-16T08:21:33.246Z,3076
2018-03-16T08:22:13.760Z,2972
2018-03-16T08:22:54.265Z,3016
2018-03-16T08:23:34.786Z,3108
2018-03-16T08:24:15.283Z,3112
2018-03-16T08:24:55.812Z,3212
2018-03-16T08:25:36.309Z,3304
2018-03-16T08:26:16.787Z,3244
2018-03-16T08:26:57.299Z,3292
2018-03-16T08:27:37.821Z,3348
2018-03-16T08:28:18.302Z,3392
2018-03-16T08:28:58.800Z,3372
2018-03-16T08:29:39.316Z,3396
2018-03-16T08:30:19.821Z,3424
2018-03-16T08:31:00.333Z,3244
2018-03-16T08:31:40.846Z,3084
2018-03-16T08:32:21.343Z,3080
2018-03-16T08:33:01.828Z,3104
2018-03-16T08:33:42.289Z,3368
2018-03-16T08:34:22.875Z,3168
2018-03-16T08:35:03.348Z,2980
2018-03-16T08:35:43.877Z,2980
2018-03-16T08:36:24.405Z,2872
2018-03-16T08:37:04.922Z,2608
2018-03-16T08:37:45.454Z,2480
2018-03-16T08:38:25.964Z,2472
2018-03-16T08:39:06.481Z,2368
2018-03-16T08:39:46.982Z,2276
2018-03-16T08:40:27.491Z,2416
2018-03-16T08:41:07.985Z,2344
2018-03-16T08:41:48.515Z,2500
2018-03-16T08:42:29.036Z,2616
2018-03-16T08:43:09.531Z,2648
2018-03-16T08:43:50.057Z,2748
2018-03-16T08:44:30.553Z,2652
2018-03-16T08:45:11.070Z,2756
2018-03-16T08:45:51.585Z,2932
2018-03-16T08:46:32.090Z,2848
2018-03-16T08:47:12.624Z,2812
2018-03-16T08:47:53.171Z,2800
2018-03-16T08:48:33.695Z,3028
2018-03-16T08:49:14.174Z,3088
2018-03-16T08:49:54.711Z,2864
2018-03-16T08:50:35.261Z,2812
2018-03-16T08:51:15.733Z,3056
2018-03-16T08:51:56.252Z,3188
2018-03-16T08:52:37.093Z,3196
2018-03-16T08:53:17.842Z,3196
2018-03-16T08:53:58.352Z,3116
2018-03-16T08:54:38.863Z,3172
2018-03-16T08:55:19.389Z,3256
2018-03-16T08:55:59.930Z,3364
2018-03-16T08:56:40.461Z,3248
2018-03-16T08:57:20.989Z,3024
2018-03-16T08:58:01.545Z,2808
2018-03-16T08:58:42.062Z,2672
2018-03-16T08:59:22.666Z,2432
2018-03-16T09:00:03.085Z,2248
2018-03-16T09:00:43.571Z,2216
2018-03-16T09:01:24.077Z,2528
2018-03-16T09:02:04.552Z,2796
2018-03-16T09:02:45.079Z,2676
2018-03-16T09:03:25.558Z,2400
2018-03-16T09:04:06.042Z,2204
2018-03-16T09:04:46.545Z,2080
2018-03-16T09:05:27.082Z,1932
2018-03-16T09:06:07.680Z,1820
2018-03-16T09:06:48.132Z,1776
2018-03-16T09:07:28.656Z,1796
2018-03-16T09:08:09.121Z,1844
2018-03-16T09:08:49.635Z,1908
2018-03-16T09:09:30.158Z,1888
2018-03-16T09:10:10.641Z,1816
2018-03-16T09:10:51.156Z,1768
2018-03-16T09:11:31.622Z,1800
2018-03-16T09:12:12.292Z,1800
2018-03-16T09:12:52.908Z,1832
2018-03-16T09:13:33.444Z,1896
2018-03-16T09:14:13.931Z,1824
2018-03-16T09:14:54.397Z,1648
2018-03-16T09:15:35.027Z,1664
2018-03-16T09:16:15.511Z,1728
2018-03-16T09:16:55.992Z,1712
2018-03-16T09:17:36.503Z,1604
2018-03-16T09:18:16.993Z,1608
2018-03-16T09:18:57.501Z,1688
2018-03-16T09:19:38.002Z,1724
2018-03-16T09:20:18.517Z,1808
2018-03-16T09:20:59.042Z,2000
2018-03-16T09:21:39.492Z,1980
2018-03-16T09:22:20.065Z,1964
2018-03-16T09:23:00.534Z,1940
2018-03-16T09:23:41.211Z,1992
2018-03-16T09:24:21.738Z,2128
2018-03-16T09:25:02.229Z,2184
2018-03-16T09:25:42.849Z,1884
2018-03-16T09:26:23.381Z,1712
2018-03-16T09:27:03.878Z,1624
2018-03-16T09:27:44.360Z,1648
2018-03-16T09:28:24.957Z,1732
2018-03-16T09:29:05.386Z,1860
2018-03-16T09:29:45.948Z,2064
2018-03-16T09:30:26.399Z,2184
2018-03-16T09:31:06.824Z,2268
2018-03-16T09:31:47.346Z,2240
2018-03-16T09:32:27.924Z,2216
2018-03-16T09:33:08.396Z,2188
2018-03-16T09:33:48.863Z,2088
2018-03-16T09:34:29.339Z,1852
2018-03-16T09:35:09.864Z,1776
2018-03-16T09:35:50.493Z,1656
2018-03-16T09:36:30.866Z,1460
2018-03-16T09:37:12.035Z,1460
2018-03-16T09:37:52.484Z,1676
2018-03-16T09:38:33.039Z,1916
2018-03-16T09:39:13.476Z,2180
2018-03-16T09:39:53.964Z,2496
2018-03-16T09:40:34.447Z,2948
2018-03-16T09:41:14.936Z,3676
2018-03-16T09:41:55.421Z,4396
2018-03-16T09:42:35.946Z,4656
2018-03-16T09:43:16.384Z,4652
2018-03-16T09:43:57.079Z,4692
2018-03-16T09:44:37.599Z,4764